Loysville, Pennsylvania
Current Conditions -  °F | °C
As of 9:56 PM on Saturday 24 Jan 2015 (Local Time) from KCXY Reporting Station
Overcast Overcast  
Wind Chill: 29°   Ceiling: 3100
Heat Index: 36°   Visibility: 10mi
Dew Point: 25°   Wind: 9mph
Humidity: 64%   Direction: 280°W
Pressure: 29.59"   Gusts: 22mph
Location:  40.37°N, 77.34°W
Report Text: KCXY 250256Z AUTO 28008G19KT 10SM OVC031 02/M04 A2959 RMK AO2 SLP023 T00221039 53021
Loading
Personal Weather Stations






























Interactive Weather Map New forecast layout! Learn more

10-Day Weather Forecast

Advertisements
Track Severe Weather on mobile